First Clarity — A8RM8 — position and weather

sailwx.info

Track history (hours):
 
Tides and Currents Weather Stations Pressure Air Temp Water Temp Dewpoint Dewpoint Depression Visibility Wind Speed Wind Dir Waves Ship Positions

First Clarity

Last reported at 2015-Feb-26 20:09 UTC. Time now 2015-Mar-04 00:11 UTC.
Position N 34°04' E 130°47'.

Length 104 m; draft 5.7 m.

Type: Ship. MMSI: 636014129.

Date/timePositionNaut miles runAvg speedWind from/ knotsBaromVisibWave heightAir tempDewpointWater temp
2015-Feb-26 20:09N 34°04' E 130°47'5 8.0
2015-Feb-26 19:33N 34°01' E 130°52'  
2015-Feb-24 14:32N 34°59' E 139°30'1010.0
2015-Feb-24 13:34N 35°04' E 139°40'1110.4
2015-Feb-24 12:33N 35°14' E 139°46'10 9.9
2015-Feb-24 11:34N 35°22' E 139°41'3 3.0
2015-Feb-24 10:33N 35°24' E 139°38'0 0.0
2015-Feb-24 09:33N 35°24' E 139°38'0 0.0
2015-Feb-24 08:33N 35°24' E 139°38'0 0.1
2015-Feb-24 07:30N 35°24' E 139°38'0 0.1
2015-Feb-24 06:33N 35°24' E 139°38'0 0.0
2015-Feb-24 05:33N 35°24' E 139°38'0 0.0
2015-Feb-24 04:33N 35°24' E 139°38'0 0.0
2015-Feb-24 03:33N 35°24' E 139°38'0 0.0
2015-Feb-24 02:33N 35°24' E 139°38'0 0.0
2015-Feb-24 01:33N 35°24' E 139°38'0 0.0
2015-Feb-24 00:33N 35°24' E 139°38'0 0.0
2015-Feb-23 23:33N 35°24' E 139°38'0 0.3
2015-Feb-23 22:33N 35°25' E 139°39'2 1.6
2015-Feb-23 21:33N 35°23' E 139°40'0 0.0
2015-Feb-23 20:33N 35°23' E 139°40'0 0.0
2015-Feb-23 19:33N 35°23' E 139°40'0 0.0
2015-Feb-23 18:33N 35°23' E 139°40'0 0.0
2015-Feb-23 17:33N 35°23' E 139°40'0 0.0
2015-Feb-23 16:33N 35°23' E 139°40'0 0.0
2015-Feb-23 15:33N 35°23' E 139°40'0 0.1
2015-Feb-23 14:33N 35°23' E 139°40'0 0.0
2015-Feb-23 13:33N 35°23' E 139°40'0 0.0
2015-Feb-23 12:33N 35°23' E 139°40'0 0.4
2015-Feb-23 11:33N 35°23' E 139°41'8 8.5
2015-Feb-23 10:33N 35°16' E 139°46'11 9.9
2015-Feb-23 09:27N 35°05' E 139°45'  
2015-Feb-21 04:17N 34°00' E 130°51'  
Track history (hours):
 
Tides and Currents Weather Stations Pressure Air Temp Water Temp Dewpoint Dewpoint Depression Visibility Wind Speed Wind Dir Waves Ship Positions

First Clarity

Last reported at 2015-Feb-26 20:09 UTC. Time now 2015-Mar-04 00:11 UTC.
Position N 34°04' E 130°47'.

Length 104 m; draft 5.7 m.

Type: Ship. MMSI: 636014129.

Date/timePositionNaut miles runAvg speedWind from/ knotsBaromVisibWave heightAir tempDewpointWater temp
2015-Feb-26 20:09N 34°04' E 130°47'5 8.0
2015-Feb-26 19:33N 34°01' E 130°52'  
2015-Feb-24 14:32N 34°59' E 139°30'1010.0
2015-Feb-24 13:34N 35°04' E 139°40'1110.4
2015-Feb-24 12:33N 35°14' E 139°46'10 9.9
2015-Feb-24 11:34N 35°22' E 139°41'3 3.0
2015-Feb-24 10:33N 35°24' E 139°38'0 0.0
2015-Feb-24 09:33N 35°24' E 139°38'0 0.0
2015-Feb-24 08:33N 35°24' E 139°38'0 0.1
2015-Feb-24 07:30N 35°24' E 139°38'0 0.1
2015-Feb-24 06:33N 35°24' E 139°38'0 0.0
2015-Feb-24 05:33N 35°24' E 139°38'0 0.0
2015-Feb-24 04:33N 35°24' E 139°38'0 0.0
2015-Feb-24 03:33N 35°24' E 139°38'0 0.0
2015-Feb-24 02:33N 35°24' E 139°38'0 0.0
2015-Feb-24 01:33N 35°24' E 139°38'0 0.0
2015-Feb-24 00:33N 35°24' E 139°38'0 0.0
2015-Feb-23 23:33N 35°24' E 139°38'0 0.3
2015-Feb-23 22:33N 35°25' E 139°39'2 1.6
2015-Feb-23 21:33N 35°23' E 139°40'0 0.0
2015-Feb-23 20:33N 35°23' E 139°40'0 0.0
2015-Feb-23 19:33N 35°23' E 139°40'0 0.0
2015-Feb-23 18:33N 35°23' E 139°40'0 0.0
2015-Feb-23 17:33N 35°23' E 139°40'0 0.0
2015-Feb-23 16:33N 35°23' E 139°40'0 0.0
2015-Feb-23 15:33N 35°23' E 139°40'0 0.1
2015-Feb-23 14:33N 35°23' E 139°40'0 0.0
2015-Feb-23 13:33N 35°23' E 139°40'0 0.0
2015-Feb-23 12:33N 35°23' E 139°40'0 0.4
2015-Feb-23 11:33N 35°23' E 139°41'8 8.5
2015-Feb-23 10:33N 35°16' E 139°46'11 9.9
2015-Feb-23 09:27N 35°05' E 139°45'  
2015-Feb-21 04:17N 34°00' E 130°51'  

Dump ship's entire track history